createdAt,value
2023-05-25T00:01:31.753Z,16.32
2023-05-25T00:04:00.718Z,15.91
2023-05-25T00:06:30.297Z,15.94
2023-05-25T00:08:59.087Z,15.87
2023-05-25T00:11:27.771Z,16.06
2023-05-25T00:13:56.494Z,16.01
2023-05-25T00:16:24.777Z,15.93
2023-05-25T00:18:57.709Z,16.36
2023-05-25T00:21:26.375Z,16.01
2023-05-25T00:23:55.093Z,16.01
2023-05-25T00:26:23.350Z,15.88
2023-05-25T00:28:51.941Z,15.84
2023-05-25T00:31:20.601Z,15.99
2023-05-25T00:33:50.549Z,15.89
2023-05-25T00:36:20.757Z,16.25
2023-05-25T00:38:49.224Z,15.87
2023-05-25T00:41:18.640Z,16.18
2023-05-25T00:43:47.664Z,16.09
2023-05-25T00:46:17.014Z,15.94
2023-05-25T00:48:47.116Z,16.17
2023-05-25T00:51:15.873Z,15.95
2023-05-25T00:53:45.996Z,16.05
2023-05-25T00:56:16.349Z,16.07
2023-05-25T00:58:46.227Z,16.05
2023-05-25T01:01:15.396Z,15.85
2023-05-25T01:03:46.910Z,15.99
2023-05-25T01:06:17.190Z,16.60
2023-05-25T01:09:00.399Z,16.11
2023-05-25T01:11:30.645Z,15.92
2023-05-25T01:13:59.785Z,15.83
2023-05-25T01:16:28.161Z,15.78
2023-05-25T01:18:58.429Z,15.75
2023-05-25T01:21:31.987Z,16.13
2023-05-25T01:24:04.774Z,16.12
2023-05-25T01:26:36.447Z,16.09
2023-05-25T01:29:06.164Z,16.02
2023-05-25T01:31:36.226Z,15.94
2023-05-25T01:34:06.130Z,15.98
2023-05-25T01:36:35.771Z,15.91
2023-05-25T01:39:06.889Z,16.11
2023-05-25T01:41:35.267Z,15.62
2023-05-25T01:44:04.015Z,15.75
2023-05-25T01:46:35.785Z,16.01
2023-05-25T01:49:14.222Z,16.09
2023-05-25T01:51:49.634Z,16.03
2023-05-25T01:54:20.799Z,16.02
2023-05-25T01:56:51.132Z,15.97
2023-05-25T01:59:22.198Z,16.09
2023-05-25T02:01:52.950Z,15.80
2023-05-25T02:04:23.012Z,15.82
2023-05-25T02:06:54.124Z,16.08
2023-05-25T02:09:22.885Z,15.71
2023-05-25T02:11:51.249Z,15.72
2023-05-25T02:14:19.861Z,15.80
2023-05-25T02:16:48.520Z,15.75
2023-05-25T02:19:17.075Z,15.73
2023-05-25T02:21:47.517Z,15.78
2023-05-25T02:24:18.580Z,16.08
2023-05-25T02:26:47.032Z,15.76
2023-05-25T02:29:15.716Z,15.67
2023-05-25T02:31:44.148Z,15.69
2023-05-25T02:34:14.022Z,15.58
2023-05-25T02:36:43.474Z,15.49
2023-05-25T02:39:12.015Z,15.36
2023-05-25T02:41:41.834Z,15.72
2023-05-25T02:44:10.383Z,15.37
2023-05-25T02:46:38.845Z,15.43
2023-05-25T02:49:07.368Z,15.49
2023-05-25T02:51:36.074Z,15.39
2023-05-25T02:54:05.350Z,15.56
2023-05-25T02:56:33.817Z,15.51
2023-05-25T02:59:03.817Z,15.81
2023-05-25T03:01:32.409Z,15.52
2023-05-25T03:04:01.171Z,15.50
2023-05-25T03:06:30.035Z,15.55
2023-05-25T03:08:58.542Z,15.50
2023-05-25T03:11:27.032Z,15.46
2023-05-25T03:13:55.448Z,15.57
2023-05-25T03:16:26.152Z,15.90
2023-05-25T03:18:55.010Z,15.66
2023-05-25T03:21:23.808Z,15.60
2023-05-25T03:23:52.277Z,15.63
2023-05-25T03:26:21.228Z,15.71
2023-05-25T03:28:49.657Z,15.71
2023-05-25T03:31:18.127Z,15.74
2023-05-25T03:33:47.951Z,16.02
2023-05-25T03:36:17.639Z,15.73
2023-05-25T03:38:46.293Z,15.73
2023-05-25T03:41:14.481Z,15.73
2023-05-25T03:43:42.947Z,15.80
2023-05-25T03:46:11.791Z,15.81
2023-05-25T03:48:40.562Z,15.80
2023-05-25T03:51:10.101Z,15.96
2023-05-25T03:53:38.822Z,15.70
2023-05-25T03:56:08.225Z,15.78
2023-05-25T03:58:37.296Z,15.64
2023-05-25T04:01:05.779Z,15.71
2023-05-25T04:03:34.884Z,15.68
2023-05-25T04:06:04.151Z,15.78
2023-05-25T04:08:34.196Z,15.98
2023-05-25T04:11:02.506Z,15.63
2023-05-25T04:13:31.583Z,15.65
2023-05-25T04:15:59.921Z,15.68
2023-05-25T04:18:28.597Z,15.61
2023-05-25T04:20:57.617Z,15.72
2023-05-25T04:23:26.214Z,15.71
2023-05-25T04:25:56.336Z,16.05
2023-05-25T04:28:24.985Z,15.82
2023-05-25T04:30:57.416Z,16.00
2023-05-25T04:33:29.863Z,15.77
2023-05-25T04:35:59.829Z,15.83
2023-05-25T04:38:28.342Z,15.59
2023-05-25T04:40:58.904Z,15.88
2023-05-25T04:43:27.889Z,15.42
2023-05-25T04:45:56.880Z,15.64
2023-05-25T04:48:25.820Z,15.46
2023-05-25T04:50:55.839Z,15.50
2023-05-25T04:53:24.614Z,15.69
2023-05-25T04:55:54.846Z,15.60
2023-05-25T04:58:25.262Z,16.07
2023-05-25T05:00:53.621Z,15.71
2023-05-25T05:03:22.615Z,15.85
2023-05-25T05:05:51.052Z,15.82
2023-05-25T05:08:19.740Z,15.79
2023-05-25T05:10:48.126Z,15.70
2023-05-25T05:13:17.537Z,15.68
2023-05-25T05:15:48.807Z,16.13
2023-05-25T05:18:17.375Z,15.82
2023-05-25T05:20:46.460Z,15.87
2023-05-25T05:23:15.276Z,15.72
2023-05-25T05:25:43.887Z,15.78
2023-05-25T05:28:12.894Z,15.66
2023-05-25T05:30:41.298Z,15.90
2023-05-25T05:33:11.523Z,16.20
2023-05-25T05:35:39.835Z,16.05
2023-05-25T05:38:09.796Z,16.09
2023-05-25T05:40:38.332Z,16.23
2023-05-25T05:43:06.976Z,16.09
2023-05-25T05:45:35.566Z,16.25
2023-05-25T05:48:04.778Z,16.39
2023-05-25T05:50:34.490Z,16.99
2023-05-25T05:53:03.398Z,16.71
2023-05-25T05:55:31.743Z,16.75
2023-05-25T05:58:00.727Z,16.85
2023-05-25T06:00:29.205Z,16.97
2023-05-25T06:02:58.107Z,16.92
2023-05-25T06:05:27.105Z,17.22
2023-05-25T06:07:57.154Z,17.38
2023-05-25T06:10:25.594Z,17.22
2023-05-25T06:12:54.350Z,17.23
2023-05-25T06:15:22.682Z,17.18
2023-05-25T06:17:51.213Z,17.24
2023-05-25T06:20:19.532Z,17.32
2023-05-25T06:22:52.593Z,17.44
2023-05-25T06:25:22.451Z,18.33
2023-05-25T06:27:51.058Z,17.49
2023-05-25T06:30:19.428Z,17.42
2023-05-25T06:32:48.584Z,17.44
2023-05-25T06:35:20.087Z,17.42
2023-05-25T06:37:49.481Z,17.66
2023-05-25T06:40:18.176Z,17.55
2023-05-25T06:42:48.222Z,17.81
2023-05-25T06:45:16.828Z,17.48
2023-05-25T06:47:45.821Z,17.39
2023-05-25T06:50:14.261Z,17.30
2023-05-25T06:52:42.959Z,17.23
2023-05-25T06:55:11.902Z,17.31
2023-05-25T06:57:41.607Z,17.26
2023-05-25T07:00:13.250Z,17.72
2023-05-25T07:02:42.191Z,17.23
2023-05-25T07:05:11.542Z,17.55
2023-05-25T07:07:40.116Z,17.51
2023-05-25T07:10:10.327Z,17.81
2023-05-25T07:12:39.227Z,17.56
2023-05-25T07:15:08.750Z,17.73
2023-05-25T07:17:39.169Z,17.92
2023-05-25T07:20:09.070Z,17.79
2023-05-25T07:22:38.042Z,17.58
2023-05-25T07:25:07.658Z,17.72
2023-05-25T07:27:36.384Z,17.72
2023-05-25T07:30:05.370Z,17.65
2023-05-25T07:32:34.084Z,17.51
2023-05-25T07:35:04.198Z,17.82
2023-05-25T07:37:32.865Z,17.58
2023-05-25T07:40:01.685Z,17.82
2023-05-25T07:42:34.408Z,17.79
2023-05-25T07:45:02.818Z,17.80
2023-05-25T07:47:31.809Z,17.97
2023-05-25T07:50:00.178Z,17.98
2023-05-25T07:52:30.415Z,18.47
2023-05-25T07:54:58.846Z,18.17
2023-05-25T07:57:27.419Z,18.20
2023-05-25T07:59:55.678Z,18.32
2023-05-25T08:02:24.388Z,18.37
2023-05-25T08:04:53.341Z,18.44
2023-05-25T08:07:22.157Z,18.41
2023-05-25T08:09:51.945Z,18.75
2023-05-25T08:14:52.127Z,18.49
2023-05-25T08:17:21.134Z,18.58
2023-05-25T08:19:49.757Z,18.61
2023-05-25T08:22:18.540Z,18.64
2023-05-25T08:24:46.983Z,18.68
2023-05-25T08:27:17.346Z,18.99
2023-05-25T08:29:45.721Z,18.60
2023-05-25T08:32:14.348Z,18.55
2023-05-25T08:34:42.497Z,18.50
2023-05-25T08:37:11.938Z,18.59
2023-05-25T08:39:40.467Z,18.56
2023-05-25T08:42:09.270Z,18.66
2023-05-25T08:44:40.217Z,19.15
2023-05-25T08:47:08.604Z,19.98
2023-05-25T08:49:39.513Z,19.49
2023-05-25T08:52:12.422Z,19.77
2023-05-25T08:54:45.358Z,19.91
2023-05-25T08:57:16.887Z,20.04
2023-05-25T08:59:48.869Z,20.69
2023-05-25T09:02:23.858Z,20.33
2023-05-25T09:04:52.512Z,19.84
2023-05-25T09:07:21.858Z,19.83
2023-05-25T09:09:50.742Z,19.78
2023-05-25T09:12:20.220Z,19.91
2023-05-25T09:14:50.116Z,19.98
2023-05-25T09:17:20.257Z,19.69
2023-05-25T09:19:48.809Z,19.70
2023-05-25T09:22:17.550Z,19.65
2023-05-25T09:24:46.238Z,19.66
2023-05-25T09:27:19.330Z,19.87
2023-05-25T09:29:50.713Z,19.80
2023-05-25T09:32:20.117Z,19.28
2023-05-25T09:34:48.927Z,19.12
2023-05-25T09:37:20.247Z,19.47
2023-05-25T09:39:49.221Z,19.35
2023-05-25T09:42:18.015Z,19.12
2023-05-25T09:44:46.509Z,19.12
2023-05-25T09:47:18.013Z,19.45
2023-05-25T09:49:49.525Z,19.48
2023-05-25T09:52:18.291Z,19.66
2023-05-25T09:54:47.430Z,19.96
2023-05-25T09:57:16.369Z,20.02
2023-05-25T09:59:45.532Z,20.13
2023-05-25T10:02:14.401Z,19.95
2023-05-25T10:04:44.138Z,20.20
2023-05-25T10:07:16.056Z,20.09
2023-05-25T10:09:47.643Z,20.13
2023-05-25T10:12:19.723Z,20.10
2023-05-25T10:14:50.771Z,20.05
2023-05-25T10:17:23.125Z,20.09
2023-05-25T10:19:57.041Z,20.16
2023-05-25T10:22:29.071Z,20.03
2023-05-25T10:25:03.553Z,20.38
2023-05-25T10:27:36.125Z,20.59
2023-05-25T10:30:04.731Z,20.30
2023-05-25T10:32:34.868Z,20.48
2023-05-25T10:35:05.442Z,20.65
2023-05-25T10:37:35.202Z,20.64
2023-05-25T10:40:03.818Z,20.44
2023-05-25T10:42:34.489Z,20.63
2023-05-25T10:45:03.448Z,20.92
2023-05-25T10:47:32.319Z,20.80
2023-05-25T10:50:03.245Z,20.82
2023-05-25T10:52:34.072Z,21.30
2023-05-25T10:55:05.395Z,21.09
2023-05-25T10:57:34.340Z,20.98
2023-05-25T11:00:06.667Z,21.31
2023-05-25T11:02:54.033Z,21.87
2023-05-25T11:05:36.845Z,21.95
2023-05-25T11:08:08.760Z,21.61
2023-05-25T11:10:56.730Z,21.64
2023-05-25T11:13:35.553Z,21.60
2023-05-25T11:16:19.146Z,21.78
2023-05-25T11:18:51.661Z,21.72
2023-05-25T11:21:40.926Z,22.03
2023-05-25T11:24:16.283Z,22.24
2023-05-25T11:26:59.224Z,22.26
2023-05-25T11:29:32.260Z,22.18
2023-05-25T11:32:01.545Z,21.60
2023-05-25T11:34:32.215Z,21.93
2023-05-25T11:37:04.048Z,21.98
2023-05-25T11:39:34.256Z,22.07
2023-05-25T11:42:07.110Z,22.22
2023-05-25T11:44:39.116Z,22.04
2023-05-25T11:47:10.290Z,21.78
2023-05-25T11:49:41.968Z,21.77
2023-05-25T11:52:10.722Z,21.38
2023-05-25T11:54:42.055Z,21.63
2023-05-25T11:57:15.759Z,21.53
2023-05-25T11:59:50.299Z,21.50
2023-05-25T12:02:18.900Z,21.26
2023-05-25T12:04:55.577Z,21.93
2023-05-25T12:07:24.776Z,21.50
2023-05-25T12:10:06.246Z,22.02
2023-05-25T12:12:42.674Z,22.08
2023-05-25T12:15:12.986Z,22.15
2023-05-25T12:17:44.401Z,22.32
2023-05-25T12:20:15.619Z,22.38
2023-05-25T12:22:45.252Z,22.52
2023-05-25T12:25:16.847Z,22.87
2023-05-25T12:27:45.151Z,23.74
2023-05-25T12:30:16.380Z,22.72
2023-05-25T12:33:03.768Z,22.98
2023-05-25T12:35:46.295Z,22.84
2023-05-25T12:38:15.679Z,22.43
2023-05-25T12:40:46.322Z,22.75
2023-05-25T12:43:17.092Z,22.78
2023-05-25T12:45:46.498Z,22.73
2023-05-25T12:48:15.129Z,22.65
2023-05-25T12:50:59.268Z,23.32
2023-05-25T12:53:29.251Z,22.39
2023-05-25T12:56:06.617Z,22.69
2023-05-25T12:58:35.157Z,22.07
2023-05-25T13:01:04.202Z,22.22
2023-05-25T13:03:32.537Z,22.06
2023-05-25T13:06:02.653Z,22.23
2023-05-25T13:08:31.154Z,21.90
2023-05-25T13:11:00.323Z,21.78
2023-05-25T13:13:30.472Z,22.08
2023-05-25T13:15:59.429Z,21.77
2023-05-25T13:18:27.989Z,21.70
2023-05-25T13:20:57.485Z,21.64
2023-05-25T13:23:26.570Z,21.68
2023-05-25T13:25:55.156Z,21.46
2023-05-25T13:28:24.035Z,21.50
2023-05-25T13:30:54.248Z,21.73
2023-05-25T13:33:22.736Z,21.50
2023-05-25T13:35:59.300Z,21.46
2023-05-25T13:38:29.675Z,21.46
2023-05-25T13:40:58.663Z,21.36
2023-05-25T13:43:27.121Z,21.40
2023-05-25T13:45:59.202Z,21.83
2023-05-25T13:48:27.797Z,21.41
2023-05-25T13:50:56.814Z,21.34
2023-05-25T13:53:25.258Z,21.08
2023-05-25T13:55:54.469Z,20.97
2023-05-25T13:58:24.996Z,20.98
2023-05-25T14:00:53.973Z,20.86
2023-05-25T14:03:23.855Z,21.12
2023-05-25T14:05:54.111Z,20.79
2023-05-25T14:08:23.081Z,20.88
2023-05-25T14:10:51.783Z,20.80
2023-05-25T14:13:20.301Z,20.70
2023-05-25T14:15:49.378Z,20.71
2023-05-25T14:18:17.697Z,20.64
2023-05-25T14:20:48.161Z,21.03
2023-05-25T14:23:19.412Z,20.71
2023-05-25T14:25:49.905Z,20.85
2023-05-25T14:28:18.258Z,20.76
2023-05-25T14:30:46.897Z,20.78
2023-05-25T14:33:17.553Z,20.73
2023-05-25T14:35:47.888Z,21.09
2023-05-25T14:38:16.556Z,20.69
2023-05-25T14:40:45.755Z,20.79
2023-05-25T14:43:14.189Z,20.61
2023-05-25T14:45:43.054Z,20.55
2023-05-25T14:48:16.779Z,20.52
2023-05-25T14:50:47.298Z,20.89
2023-05-25T14:53:16.259Z,20.29
2023-05-25T14:55:45.300Z,20.10
2023-05-25T14:58:13.938Z,20.01
2023-05-25T15:00:42.754Z,20.11
2023-05-25T15:03:11.193Z,20.00
2023-05-25T15:05:40.038Z,20.10
2023-05-25T15:08:09.884Z,20.39
2023-05-25T15:10:38.899Z,20.16
2023-05-25T15:13:07.466Z,20.13
2023-05-25T15:15:36.437Z,20.20
2023-05-25T15:18:05.248Z,20.15
2023-05-25T15:20:34.115Z,19.94
2023-05-25T15:23:03.340Z,19.96
2023-05-25T15:25:35.649Z,20.19
2023-05-25T15:28:05.087Z,20.11
2023-05-25T15:30:34.584Z,19.97
2023-05-25T15:33:03.546Z,20.10
2023-05-25T15:35:35.599Z,20.09
2023-05-25T15:38:04.726Z,20.16
2023-05-25T15:40:37.361Z,20.45
2023-05-25T15:43:05.561Z,20.12
2023-05-25T15:45:34.483Z,20.12
2023-05-25T15:48:04.150Z,20.13
2023-05-25T15:50:33.176Z,20.08
2023-05-25T15:53:01.819Z,20.10
2023-05-25T15:55:30.460Z,20.18
2023-05-25T15:58:00.545Z,20.57
2023-05-25T16:00:29.317Z,20.28
2023-05-25T16:02:58.395Z,20.43
2023-05-25T16:05:30.340Z,20.60
2023-05-25T16:07:58.635Z,21.59
2023-05-25T16:10:27.686Z,20.68
2023-05-25T16:12:56.315Z,20.52
2023-05-25T16:15:26.873Z,20.88
2023-05-25T16:17:55.561Z,20.68
2023-05-25T16:20:24.234Z,20.57
2023-05-25T16:22:52.710Z,20.58
2023-05-25T16:25:21.707Z,20.59
2023-05-25T16:27:50.259Z,20.64
2023-05-25T16:30:18.913Z,20.56
2023-05-25T16:32:49.100Z,20.92
2023-05-25T16:35:18.035Z,20.65
2023-05-25T16:37:46.521Z,20.52
2023-05-25T16:40:15.886Z,20.48
2023-05-25T16:42:44.429Z,20.42
2023-05-25T16:45:13.608Z,20.35
2023-05-25T16:47:42.249Z,20.39
2023-05-25T16:50:15.572Z,20.67
2023-05-25T16:52:44.093Z,20.25
2023-05-25T16:55:14.888Z,20.44
2023-05-25T16:57:45.189Z,20.30
2023-05-25T17:00:15.212Z,20.47
2023-05-25T17:02:43.726Z,20.12
2023-05-25T17:05:12.564Z,20.16
2023-05-25T17:07:42.692Z,20.44
2023-05-25T17:10:12.307Z,20.13
2023-05-25T17:12:40.949Z,20.02
2023-05-25T17:15:11.355Z,20.06
2023-05-25T17:17:39.863Z,19.91
2023-05-25T17:20:10.848Z,19.89
2023-05-25T17:22:39.776Z,20.03
2023-05-25T17:25:11.411Z,20.19
2023-05-25T17:27:40.167Z,19.76
2023-05-25T17:30:10.477Z,19.99
2023-05-25T17:32:40.179Z,19.66
2023-05-25T17:35:09.545Z,19.65
2023-05-25T17:37:38.204Z,19.55
2023-05-25T17:40:10.030Z,19.55
2023-05-25T17:42:40.797Z,19.25
2023-05-25T17:45:11.863Z,19.52
2023-05-25T17:47:40.473Z,19.18
2023-05-25T17:50:09.964Z,19.18
2023-05-25T17:52:38.609Z,18.99
2023-05-25T17:55:09.910Z,19.15
2023-05-25T17:57:38.228Z,18.92
2023-05-25T18:00:08.873Z,19.11
2023-05-25T18:02:37.610Z,18.77
2023-05-25T18:05:07.669Z,19.00
2023-05-25T18:07:36.161Z,18.77
2023-05-25T18:10:05.356Z,18.89
2023-05-25T18:12:35.271Z,19.12
2023-05-25T18:15:04.073Z,18.77
2023-05-25T18:17:32.614Z,18.69
2023-05-25T18:20:01.570Z,18.81
2023-05-25T18:22:30.150Z,18.71
2023-05-25T18:24:58.863Z,18.57
2023-05-25T18:27:27.298Z,18.53
2023-05-25T18:29:58.228Z,18.95
2023-05-25T18:32:26.702Z,18.56
2023-05-25T18:34:57.169Z,18.48
2023-05-25T18:37:26.723Z,18.44
2023-05-25T18:39:55.459Z,18.48
2023-05-25T18:42:24.012Z,18.43
2023-05-25T18:44:52.867Z,18.48
2023-05-25T18:47:23.933Z,18.72
2023-05-25T18:49:53.049Z,18.48
2023-05-25T18:52:22.524Z,18.30
2023-05-25T18:54:51.423Z,18.36
2023-05-25T18:57:20.162Z,18.57
2023-05-25T18:59:49.200Z,18.85
2023-05-25T19:02:18.295Z,18.86
2023-05-25T19:04:50.599Z,19.18
2023-05-25T19:07:19.137Z,18.85
2023-05-25T19:09:48.313Z,18.75
2023-05-25T19:12:16.595Z,18.68
2023-05-25T19:14:45.187Z,18.62
2023-05-25T19:17:14.550Z,18.55
2023-05-25T19:19:43.082Z,18.48
2023-05-25T19:22:13.023Z,18.75
2023-05-25T19:24:43.029Z,18.28
2023-05-25T19:27:15.322Z,18.26
2023-05-25T19:29:45.806Z,18.20
2023-05-25T19:32:15.155Z,18.00
2023-05-25T19:34:46.884Z,18.04
2023-05-25T19:37:16.536Z,18.18
2023-05-25T19:39:45.822Z,17.87
2023-05-25T19:42:14.213Z,17.67
2023-05-25T19:44:42.932Z,17.65
2023-05-25T19:47:11.266Z,17.55
2023-05-25T19:49:40.018Z,17.51
2023-05-25T19:52:08.544Z,17.50
2023-05-25T19:54:39.391Z,17.81
2023-05-25T19:57:07.854Z,17.43
2023-05-25T19:59:37.669Z,17.47
2023-05-25T20:02:06.508Z,17.47
2023-05-25T20:04:35.317Z,17.54
2023-05-25T20:07:03.704Z,17.40
2023-05-25T20:09:32.483Z,17.58
2023-05-25T20:12:02.660Z,17.79
2023-05-25T20:14:31.395Z,17.51
2023-05-25T20:16:59.825Z,17.53
2023-05-25T20:19:28.527Z,17.46
2023-05-25T20:21:57.920Z,17.45
2023-05-25T20:24:26.816Z,17.37
2023-05-25T20:26:56.907Z,17.43
2023-05-25T20:29:27.624Z,17.81
2023-05-25T20:31:55.977Z,17.46
2023-05-25T20:34:24.681Z,17.44
2023-05-25T20:36:53.660Z,17.42
2023-05-25T20:39:22.228Z,17.42
2023-05-25T20:41:50.727Z,17.52
2023-05-25T20:44:19.360Z,17.52
2023-05-25T20:46:49.062Z,17.84
2023-05-25T20:49:17.678Z,17.52
2023-05-25T20:51:50.072Z,17.59
2023-05-25T20:54:18.924Z,17.55
2023-05-25T20:56:51.161Z,17.51
2023-05-25T20:59:19.726Z,17.45
2023-05-25T21:01:49.397Z,17.87
2023-05-25T21:04:18.106Z,17.59
2023-05-25T21:06:46.888Z,17.68
2023-05-25T21:09:15.560Z,17.50
2023-05-25T21:11:43.971Z,17.58
2023-05-25T21:14:12.716Z,17.48
2023-05-25T21:16:41.188Z,17.59
2023-05-25T21:19:11.638Z,17.90
2023-05-25T21:21:40.223Z,17.63
2023-05-25T21:24:09.252Z,17.69
2023-05-25T21:26:37.646Z,17.58
2023-05-25T21:29:07.958Z,17.62
2023-05-25T21:31:36.408Z,17.57
2023-05-25T21:34:05.549Z,17.68
2023-05-25T21:36:36.389Z,17.95
2023-05-25T21:39:05.443Z,17.61
2023-05-25T21:41:33.838Z,17.62
2023-05-25T21:44:02.539Z,17.57
2023-05-25T21:46:31.076Z,17.54
2023-05-25T21:49:00.769Z,17.52
2023-05-25T21:51:30.099Z,17.56
2023-05-25T21:54:00.607Z,17.80
2023-05-25T21:56:29.102Z,17.58
2023-05-25T21:58:57.754Z,17.44
2023-05-25T22:01:26.284Z,17.54
2023-05-25T22:03:54.948Z,17.43
2023-05-25T22:06:24.420Z,17.84
2023-05-25T22:08:53.142Z,17.45
2023-05-25T22:11:24.594Z,17.68
2023-05-25T22:13:53.573Z,17.48
2023-05-25T22:16:22.298Z,17.48
2023-05-25T22:18:51.091Z,17.45
2023-05-25T22:21:19.368Z,17.41
2023-05-25T22:23:48.130Z,17.45
2023-05-25T22:26:16.409Z,17.32
2023-05-25T22:28:46.481Z,17.67
2023-05-25T22:31:14.940Z,17.35
2023-05-25T22:33:46.762Z,17.81
2023-05-25T22:36:16.389Z,17.37
2023-05-25T22:38:44.878Z,17.31
2023-05-25T22:41:13.660Z,17.42
2023-05-25T22:43:42.427Z,17.38
2023-05-25T22:46:12.192Z,17.72
2023-05-25T22:48:41.255Z,17.44
2023-05-25T22:51:09.540Z,17.30
2023-05-25T22:53:38.542Z,17.42
2023-05-25T22:56:07.040Z,17.41
2023-05-25T22:58:35.880Z,17.41
2023-05-25T23:01:04.248Z,17.28
2023-05-25T23:03:34.471Z,17.67
2023-05-25T23:06:03.070Z,17.41
2023-05-25T23:08:32.013Z,17.35
2023-05-25T23:11:00.275Z,17.37
2023-05-25T23:13:29.592Z,17.24
2023-05-25T23:15:57.981Z,17.20
2023-05-25T23:18:26.910Z,17.32
2023-05-25T23:20:56.830Z,17.60
2023-05-25T23:23:25.381Z,17.26
2023-05-25T23:25:54.360Z,17.25
2023-05-25T23:28:23.049Z,17.33
2023-05-25T23:30:51.981Z,17.26
2023-05-25T23:33:20.451Z,17.23
2023-05-25T23:35:49.121Z,17.26
2023-05-25T23:38:19.550Z,17.56
2023-05-25T23:40:47.874Z,17.22
2023-05-25T23:43:17.334Z,17.35
2023-05-25T23:45:45.876Z,17.17
2023-05-25T23:48:14.855Z,17.19
2023-05-25T23:50:43.124Z,17.16
2023-05-25T23:53:11.987Z,17.26
2023-05-25T23:55:42.033Z,17.53
2023-05-25T23:58:10.539Z,17.19
